Westover, PA (16692)

4:21 AM EDT on July 31, 2016 (GMT -0400)
APRSWXNET | | Change Station

Elev 1713 ft 40.73 °N, 78.92 °W | Updated 26 minutes ago

Overcast
Overcast
66 °F
Feels Like 66 °F
N
0
Wind Variable Wind from WNW
Gusts 3.0 mph

Today
High -- | Low -- °F
--% Chance of Precip.
Yesterday
High -- | Low -- °F
Precip. -- in
Pressure 30.03 in
Visibility 1.0 miles
Clouds Overcast 300 ft
Dew Point 66 °F
Humidity 99%
Rainfall in
Snow Depth Not available.
6:11 AM 8:31 PM
Waning Crescent, 8% visible
METAR KIDI 310815Z AUTO 00000KT 1SM BR OVC003 20/20 A3003 RMK A01
Pressure 30.03 in
Visibility 1.0 miles
Clouds Overcast 300 ft
Dew Point 66 °F
Humidity 99%
Rainfall in
Snow Depth Not available.
6:11 AM 8:31 PM
Waning Crescent, 8% visible
METAR KIDI 310815Z AUTO 00000KT 1SM BR OVC003 20/20 A3003 RMK A01

10-Day Weather Forecast

Almanac

Astronomy

Jul. 31, 2016 Rise Set
Actual Time
Civil Twilight
Nautical Twilight
Astronomical Twilight
Moon
Length of Visible Light
Length of Day
Tomorrow will be .
, % of the Moon is Illuminated

Today's Extremes

State Highs State Lows

Community

WunderPhotos

Upload Photos

1,928,768 photos uploaded!

WunderBlog® & News

Nearby

Air Quality

  Air Quality AQ Index Pollutant
Not available.

Snow Depth

Station Depth Elevation

Earthquake Activity

City Distance Mag. Time & Date
Minimum magnitude displayed is 2.5.

Coastal Water Temperatures

Place Temperature

Stations

Nearby Weather Stations

Station Location Temp. Windchill Dew Point Humidity Wind Precip. Elev Updated Type
                   

Watches & Warnings

There are currently no watches in effect.